Time;durP1;ratioP1;P1;durP2;ratioP2;P2;SDS_P1;SDS_P2;PMS_P1;PMS_P2;Temp;Humidity;BMP_temperature;BMP_pressure;BME280_temperature;BME280_humidity;BME280_pressure;Samples;Min_cycle;Max_cycle;Signal;HPM_P1;HPM_P2
2021/12/07 00:01:49;;;;;;;5.30;1.60;;;;;;;3.42;50.67;97998.84;4981403;28;20018;-71
2021/12/07 00:04:15;;;;;;;5.13;1.90;;;;;;;3.49;51.26;98001.78;4996968;28;20034;-71
2021/12/07 00:06:40;;;;;;;4.82;1.60;;;;;;;3.53;51.63;98002.34;4981848;28;20049;-72
2021/12/07 00:09:14;;;;;;;4.68;1.40;;;;;;;3.36;52.30;97998.47;4922717;28;20856;-71
2021/12/07 00:11:40;;;;;;;4.25;1.25;;;;;;;3.33;51.95;97999.53;4976219;28;20100;-72
2021/12/07 00:14:15;;;;;;;4.32;1.25;;;;;;;3.23;52.15;97966.00;4977775;28;20022;-71
2021/12/07 00:16:43;;;;;;;4.90;1.75;;;;;;;3.42;52.60;97995.44;5017349;28;20022;-71
2021/12/07 00:19:09;;;;;;;5.43;1.65;;;;;;;3.58;53.63;97992.56;4963904;28;20046;-72
2021/12/07 00:21:35;;;;;;;6.82;2.78;;;;;;;3.74;52.62;97992.19;4997770;28;20030;-72
2021/12/07 00:24:02;;;;;;;6.53;2.80;;;;;;;3.64;49.10;97979.22;5009222;28;20038;-72
2021/12/07 00:26:27;;;;;;;4.82;1.80;;;;;;;3.83;47.34;97973.50;4967058;28;20037;-72
2021/12/07 00:28:53;;;;;;;4.10;1.60;;;;;;;3.84;47.05;97968.22;4965397;28;20032;-72
2021/12/07 00:31:30;;;;;;;4.38;1.73;;;;;;;3.80;46.49;97935.97;4981569;28;20474;-72
2021/12/07 00:35:16;;;;;;;4.15;1.63;;;;;;;3.97;46.69;97964.72;4980092;28;20284;-71
2021/12/07 00:36:51;;;;;;;9.32;3.35;;;;;;;3.67;46.85;97914.72;4987265;28;20049;-72
2021/12/07 00:39:19;;;;;;;4.85;2.05;;;;;;;3.92;46.97;97977.13;4978957;28;20030;-71
2021/12/07 00:41:45;;;;;;;5.25;1.80;;;;;;;3.89;46.82;97970.47;4982063;28;20117;-72
2021/12/07 00:44:11;;;;;;;4.35;1.58;;;;;;;3.93;47.35;97976.19;4980106;28;20481;-70
2021/12/07 00:46:37;;;;;;;4.63;1.42;;;;;;;3.90;47.85;97989.28;4978279;28;20035;-72
2021/12/07 00:49:04;;;;;;;5.65;1.58;;;;;;;3.93;46.94;97983.91;4998350;28;20072;-71
2021/12/07 00:51:30;;;;;;;4.57;1.77;;;;;;;3.54;47.54;97925.13;4981709;28;20077;-73
2021/12/07 00:53:55;;;;;;;4.22;1.30;;;;;;;3.66;46.93;97913.06;4974905;28;20026;-70
2021/12/07 00:56:22;;;;;;;4.47;1.58;;;;;;;3.87;46.99;97980.06;4980406;28;20112;-72
2021/12/07 00:58:48;;;;;;;3.90;1.25;;;;;;;3.89;47.56;97969.63;4997721;28;20030;-71
2021/12/07 01:01:16;;;;;;;4.43;1.40;;;;;;;3.90;47.32;97963.56;4979728;28;20524;-71
2021/12/07 01:03:42;;;;;;;4.50;1.40;;;;;;;3.78;47.42;97955.84;4964474;28;20373;-72
2021/12/07 01:06:33;;;;;;;4.35;1.60;;;;;;;3.79;46.84;97954.91;4977925;28;20144;-72
2021/12/07 01:09:14;;;;;;;3.92;1.35;;;;;;;3.78;47.15;97960.19;5005078;28;20650;-71
2021/12/07 01:25:31;;;;;;;3.90;1.35;;;;;;;3.69;46.80;97923.13;4979804;28;20053;-71
2021/12/07 01:28:02;;;;;;;3.78;1.38;;;;;;;3.71;47.91;97923.81;4983366;28;20116;-72
2021/12/07 01:34:42;;;;;;;4.15;1.60;;;;;;;3.94;48.69;97978.66;4956698;28;20386;-71
2021/12/07 01:59:50;;;;;;;4.35;1.40;;;;;;;3.70;53.23;97994.19;4980176;28;20045;-71
2021/12/07 02:02:17;;;;;;;4.80;1.73;;;;;;;3.65;52.51;97973.13;4972527;28;20038;-71
2021/12/07 02:04:43;;;;;;;4.47;1.40;;;;;;;3.18;52.42;97972.41;4964975;28;20049;-70
2021/12/07 02:07:09;;;;;;;4.38;1.60;;;;;;;3.13;54.20;97970.16;4979796;28;20034;-72
2021/12/07 02:09:36;;;;;;;3.67;1.20;;;;;;;3.19;54.20;97982.53;4974427;28;20045;-73
2021/12/07 02:12:03;;;;;;;3.20;1.25;;;;;;;3.16;52.55;97976.81;4964538;28;20086;-70
2021/12/07 02:14:30;;;;;;;4.10;1.27;;;;;;;3.13;53.08;97977.88;4976837;28;20034;-71
2021/12/07 02:17:12;;;;;;;3.83;1.20;;;;;;;3.22;53.30;97969.47;4975318;28;20034;-72
2021/12/07 02:19:38;;;;;;;4.60;1.50;;;;;;;3.20;54.08;97949.97;4981537;28;20031;-72
2021/12/07 02:22:04;;;;;;;3.60;1.30;;;;;;;2.84;54.83;97939.72;4976727;28;20045;-72
2021/12/07 02:24:30;;;;;;;3.78;1.30;;;;;;;3.08;54.28;97988.50;4979784;28;20037;-71
2021/12/07 02:26:57;;;;;;;4.97;1.38;;;;;;;3.03;54.76;97990.59;4975866;28;20056;-69
2021/12/07 02:29:23;;;;;;;3.42;1.20;;;;;;;3.16;55.08;97987.94;4995707;28;20330;-71
2021/12/07 02:31:50;;;;;;;4.07;1.10;;;;;;;3.35;54.85;97994.28;4976829;28;20544;-70
2021/12/07 02:34:16;;;;;;;3.80;1.33;;;;;;;3.28;55.03;97993.91;5008959;28;20065;-71
2021/12/07 02:36:42;;;;;;;3.00;0.95;;;;;;;3.23;54.35;98019.09;4975539;28;20030;-71
2021/12/07 02:39:10;;;;;;;3.97;1.30;;;;;;;3.35;55.67;98025.09;4980591;28;20101;-71
2021/12/07 02:41:36;;;;;;;4.60;1.45;;;;;;;3.34;56.42;98006.31;4994210;28;20026;-71
2021/12/07 02:44:05;;;;;;;2.63;1.02;;;;;;;3.37;54.36;98000.91;4970496;28;20552;-70
2021/12/07 02:46:31;;;;;;;3.90;1.50;;;;;;;3.34;55.88;98001.16;4971263;28;20034;-71
2021/12/07 02:48:56;;;;;;;3.22;1.15;;;;;;;3.18;54.90;97988.63;4978222;28;20034;-72
2021/12/07 02:51:21;;;;;;;3.88;1.33;;;;;;;3.32;56.15;98003.00;4983634;28;20034;-72
2021/12/07 02:53:47;;;;;;;4.72;1.33;;;;;;;3.34;53.86;98005.47;4982074;28;20117;-71
2021/12/07 02:56:13;;;;;;;4.30;1.50;;;;;;;3.20;53.49;98007.31;4984731;28;20113;-72
2021/12/07 02:58:42;;;;;;;4.45;1.40;;;;;;;2.78;51.95;97944.50;4982882;28;20100;-71
2021/12/07 03:01:15;;;;;;;2.85;0.90;;;;;;;3.25;50.60;97961.56;4982069;28;20046;-72
2021/12/07 03:06:41;;;;;;;3.67;1.10;;;;;;;3.69;51.62;98009.72;4982902;28;20042;-71
2021/12/07 03:28:17;;;;;;;3.50;1.10;;;;;;;3.64;49.79;98064.06;4983276;28;20122;-71
2021/12/07 03:30:42;;;;;;;4.15;1.40;;;;;;;3.57;49.55;98058.56;4982669;28;20063;-72
2021/12/07 03:33:08;;;;;;;2.97;1.02;;;;;;;3.36;49.14;98017.28;4983197;28;20736;-72
2021/12/07 03:35:33;;;;;;;3.42;1.23;;;;;;;3.61;49.10;98057.41;4981262;28;20649;-71
2021/12/07 03:38:00;;;;;;;3.20;1.27;;;;;;;3.58;48.94;98042.22;4982899;28;20033;-71
2021/12/07 03:40:26;;;;;;;3.25;1.20;;;;;;;3.45;48.75;97990.91;4975520;28;20109;-71
2021/12/07 03:42:52;;;;;;;3.70;1.10;;;;;;;3.63;49.03;98034.97;4978960;28;20182;-70
2021/12/07 03:45:17;;;;;;;3.90;1.00;;;;;;;3.62;48.93;98032.53;4965646;28;20608;-72
2021/12/07 03:47:43;;;;;;;3.08;0.95;;;;;;;3.67;48.14;98033.00;4998687;28;20651;-70
2021/12/07 03:50:10;;;;;;;3.83;1.20;;;;;;;3.71;48.51;98043.88;4966170;28;20038;-71
2021/12/07 03:52:36;;;;;;;3.80;1.17;;;;;;;3.73;48.29;98039.44;4972698;28;20039;-71
2021/12/07 03:55:02;;;;;;;3.55;1.23;;;;;;;3.75;48.44;98032.41;4964996;28;20050;-70
2021/12/07 03:57:27;;;;;;;3.70;1.20;;;;;;;3.72;48.77;98035.22;4980489;28;20030;-71
2021/12/07 03:59:53;;;;;;;3.90;1.33;;;;;;;3.64;49.03;98020.38;4965446;28;20058;-71
2021/12/07 04:02:18;;;;;;;3.80;1.10;;;;;;;3.55;50.13;98014.16;4981922;28;20038;-72
2021/12/07 04:04:44;;;;;;;3.58;1.15;;;;;;;3.58;50.10;98011.38;4990647;28;20077;-70
2021/12/07 04:07:09;;;;;;;3.50;1.10;;;;;;;3.61;49.71;98005.16;4974700;28;20034;-71
2021/12/07 04:09:35;;;;;;;3.33;1.23;;;;;;;3.62;50.14;98017.91;4997878;28;20034;-71
2021/12/07 04:12:00;;;;;;;4.10;1.40;;;;;;;3.64;49.90;97994.66;4982564;28;20034;-71
2021/12/07 04:14:26;;;;;;;3.10;1.15;;;;;;;3.69;49.31;98007.97;4980848;28;20037;-71
2021/12/07 04:16:52;;;;;;;3.38;1.23;;;;;;;3.61;49.77;98013.72;4983911;28;20035;-69
2021/12/07 04:19:18;;;;;;;3.28;1.00;;;;;;;3.69;50.22;98013.13;4984012;28;20382;-71
2021/12/07 04:21:43;;;;;;;4.05;1.20;;;;;;;3.75;50.20;98022.13;4979073;28;20034;-71
2021/12/07 04:24:09;;;;;;;3.85;1.20;;;;;;;3.42;49.80;97974.88;4997895;28;20113;-70
2021/12/07 04:26:34;;;;;;;4.00;1.20;;;;;;;3.66;49.63;98036.50;4982938;28;20103;-72
2021/12/07 04:29:00;;;;;;;4.75;1.40;;;;;;;3.66;49.43;98036.50;4964829;28;21810;-70
2021/12/07 04:31:25;;;;;;;3.15;1.00;;;;;;;3.57;48.99;98017.41;4977427;28;20034;-69
2021/12/07 04:33:51;;;;;;;4.20;1.23;;;;;;;3.65;48.83;98020.25;4982295;28;20703;-70
2021/12/07 04:36:17;;;;;;;2.95;1.13;;;;;;;3.38;48.91;97961.44;4977987;28;20073;-71
2021/12/07 04:38:43;;;;;;;3.35;1.10;;;;;;;3.62;49.08;98007.63;4980260;28;20027;-71
2021/12/07 04:41:09;;;;;;;3.30;1.10;;;;;;;3.57;49.77;98024.31;4977694;28;20038;-70
2021/12/07 04:43:36;;;;;;;3.35;1.10;;;;;;;3.57;50.09;98027.72;4984639;28;20508;-71
2021/12/07 04:48:55;;;;;;;3.83;1.20;;;;;;;3.56;49.99;98010.66;4982537;28;20045;-69
2021/12/07 04:59:29;;;;;;;4.82;1.20;;;;;;;3.45;50.40;98015.78;4977553;28;20138;-69
2021/12/07 05:01:54;;;;;;;2.55;0.93;;;;;;;3.31;49.96;97996.25;4984206;28;20473;-71
2021/12/07 05:04:25;;;;;;;3.25;1.00;;;;;;;3.16;50.28;97993.06;4972240;28;20034;-70
2021/12/07 05:06:55;;;;;;;3.20;0.90;;;;;;;3.40;50.38;98035.88;4978228;28;20026;-69
2021/12/07 05:14:28;;;;;;;2.88;1.00;;;;;;;3.05;49.99;98003.31;4972702;28;20481;-71
2021/12/07 05:17:15;;;;;;;4.82;1.15;;;;;;;2.95;50.25;97995.44;4969230;28;20050;-70
2021/12/07 05:38:37;;;;;;;3.42;0.90;;;;;;;3.25;50.26;98063.53;4957931;28;20120;-71
2021/12/07 05:41:06;;;;;;;3.10;0.90;;;;;;;3.38;50.85;98084.00;4975995;28;20478;-71
2021/12/07 05:43:32;;;;;;;2.92;1.15;;;;;;;3.11;50.50;98043.16;4986288;28;20422;-72
2021/12/07 05:45:57;;;;;;;3.83;1.10;;;;;;;3.37;51.23;98090.06;4985160;28;20034;-72
2021/12/07 05:48:24;;;;;;;4.80;1.40;;;;;;;3.37;50.29;98085.72;4975119;28;20054;-71
2021/12/07 05:50:49;;;;;;;3.50;1.10;;;;;;;3.38;50.41;98092.53;4994839;28;20029;-72
2021/12/07 05:53:15;;;;;;;3.63;1.13;;;;;;;3.42;51.79;98086.22;4979543;28;20575;-71
2021/12/07 05:55:41;;;;;;;3.47;1.13;;;;;;;3.36;51.06;98078.13;4976193;28;20037;-70
2021/12/07 05:58:09;;;;;;;3.40;1.20;;;;;;;3.42;51.65;98088.78;4951664;28;20556;-70
2021/12/07 06:00:36;;;;;;;3.70;1.30;;;;;;;3.35;52.27;98081.66;4972920;28;20037;-72
2021/12/07 06:03:04;;;;;;;4.05;1.20;;;;;;;3.25;51.27;98048.91;4972196;28;20097;-71
2021/12/07 06:05:31;;;;;;;3.35;0.98;;;;;;;3.40;51.36;98080.38;4972778;28;20037;-70
2021/12/07 06:07:56;;;;;;;4.32;1.13;;;;;;;3.35;51.34;98072.19;4951252;28;20582;-72
2021/12/07 06:10:22;;;;;;;3.35;1.33;;;;;;;3.36;51.15;98083.28;4973621;28;20600;-70
2021/12/07 06:12:48;;;;;;;4.47;1.40;;;;;;;3.38;51.47;98081.44;4951473;28;20035;-71
2021/12/07 06:15:17;;;;;;;3.08;1.00;;;;;;;3.06;51.26;98023.72;5000126;28;20033;-72
2021/12/07 06:17:43;;;;;;;3.53;1.20;;;;;;;3.41;51.33;98068.34;4975641;28;20034;-71
2021/12/07 06:20:09;;;;;;;3.28;1.00;;;;;;;3.29;51.28;98066.69;4977111;28;20031;-71
2021/12/07 06:22:35;;;;;;;3.05;0.98;;;;;;;3.25;51.28;98061.75;4977326;28;20285;-72
2021/12/07 06:25:00;;;;;;;3.92;1.25;;;;;;;3.33;51.59;98070.66;4956640;28;20096;-71
2021/12/07 06:27:26;;;;;;;3.80;1.35;;;;;;;3.38;52.06;98078.84;4974454;28;20041;-70
2021/12/07 06:29:52;;;;;;;6.93;1.50;;;;;;;3.28;52.31;98081.25;4972608;28;20038;-70
2021/12/07 06:32:18;;;;;;;4.22;1.40;;;;;;;3.25;52.57;98071.22;4989016;28;20042;-72
2021/12/07 06:34:44;;;;;;;3.88;1.05;;;;;;;3.25;52.64;98076.38;4972390;28;20076;-71
2021/12/07 06:37:09;;;;;;;5.05;2.33;;;;;;;3.10;53.57;98075.69;4990475;28;20054;-71
2021/12/07 06:39:35;;;;;;;9.45;6.97;;;;;;;3.22;53.50;98090.25;4976949;28;20034;-70
2021/12/07 06:42:01;;;;;;;7.05;3.60;;;;;;;3.17;53.17;98076.91;4980139;28;20469;-71
2021/12/07 06:44:26;;;;;;;5.53;2.72;;;;;;;3.21;53.30;98096.31;4985511;28;20050;-71
2021/12/07 06:46:52;;;;;;;5.25;1.83;;;;;;;3.25;52.93;98105.44;4998992;28;20034;-71
2021/12/07 06:49:19;;;;;;;5.50;2.40;;;;;;;3.22;53.19;98097.13;4965354;28;20038;-71
2021/12/07 06:51:46;;;;;;;5.63;2.42;;;;;;;3.23;53.38;98098.75;4979180;28;20050;-72
2021/12/07 06:54:11;;;;;;;6.20;2.50;;;;;;;3.32;53.18;98123.78;4970951;28;20022;-71
2021/12/07 06:56:37;;;;;;;4.03;1.38;;;;;;;3.27;52.83;98108.72;4962272;28;20053;-71
2021/12/07 06:59:03;;;;;;;5.00;1.63;;;;;;;3.15;52.98;98093.38;4981331;28;20092;-71
2021/12/07 07:01:28;;;;;;;3.38;1.17;;;;;;;3.23;53.03;98099.59;4982593;28;20489;-70
2021/12/07 07:03:54;;;;;;;3.67;1.40;;;;;;;2.89;52.94;98044.69;4996640;28;20385;-70
2021/12/07 07:06:20;;;;;;;4.00;1.48;;;;;;;3.22;53.13;98099.69;4997241;28;20464;-72
2021/12/07 07:08:45;;;;;;;4.20;1.42;;;;;;;3.00;53.43;98073.00;4978162;28;20060;-72
2021/12/07 07:11:11;;;;;;;3.35;1.17;;;;;;;2.98;53.03;98084.31;4995760;28;20053;-70
2021/12/07 07:13:36;;;;;;;4.30;1.30;;;;;;;3.24;52.54;98123.53;4964287;28;20628;-72
2021/12/07 07:16:02;;;;;;;2.60;0.90;;;;;;;3.43;51.72;98125.59;4961578;28;20397;-71
2021/12/07 07:18:28;;;;;;;4.68;1.33;;;;;;;3.14;52.39;98089.16;4996779;28;20034;-71
2021/12/07 07:20:55;;;;;;;5.07;1.08;;;;;;;3.24;51.99;98126.09;4951748;28;20117;-70
2021/12/07 07:23:22;;;;;;;5.65;2.47;;;;;;;3.28;52.62;98137.78;4979128;28;20030;-70
2021/12/07 07:25:47;;;;;;;5.28;1.63;;;;;;;3.13;52.38;98110.66;4976078;28;20401;-71
2021/12/07 07:28:13;;;;;;;4.28;1.50;;;;;;;3.24;52.80;98131.25;4983188;28;20026;-71
2021/12/07 07:30:38;;;;;;;6.60;2.80;;;;;;;3.24;52.71;98137.19;4977595;28;20033;-71
2021/12/07 07:33:04;;;;;;;5.20;2.00;;;;;;;3.22;52.91;98120.25;4980831;28;20022;-70
2021/12/07 07:35:29;;;;;;;4.60;1.90;;;;;;;3.30;52.80;98137.69;4979042;28;20030;-72
2021/12/07 07:37:55;;;;;;;5.22;1.92;;;;;;;3.23;52.99;98139.88;4963033;28;20025;-72
2021/12/07 07:40:22;;;;;;;5.57;1.20;;;;;;;3.25;53.42;98136.28;4980401;28;20085;-71
2021/12/07 07:42:48;;;;;;;3.30;1.00;;;;;;;3.32;53.23;98136.63;4962497;28;20030;-72
2021/12/07 07:45:14;;;;;;;3.65;1.08;;;;;;;3.23;53.34;98132.16;4999135;28;20049;-71
2021/12/07 07:47:40;;;;;;;3.83;1.20;;;;;;;3.25;53.59;98126.00;4981314;28;20695;-70
2021/12/07 07:50:07;;;;;;;4.03;1.50;;;;;;;3.24;54.23;98126.09;4999924;28;20105;-71
2021/12/07 07:52:33;;;;;;;3.70;1.30;;;;;;;3.26;54.04;98152.50;4999732;28;20053;-70
2021/12/07 07:54:58;;;;;;;3.88;1.25;;;;;;;3.22;54.32;98135.69;4996935;28;20061;-70
2021/12/07 07:57:24;;;;;;;8.32;1.52;;;;;;;3.29;53.93;98147.16;5000057;28;20029;-70
2021/12/07 07:59:49;;;;;;;5.50;1.40;;;;;;;3.25;53.63;98149.13;4981901;28;20521;-70
2021/12/07 08:02:15;;;;;;;3.53;1.05;;;;;;;3.24;53.94;98147.47;4985147;28;20076;-70
2021/12/07 08:04:40;;;;;;;4.35;1.17;;;;;;;2.88;53.55;98095.25;4981255;28;20173;-69
2021/12/07 08:07:06;;;;;;;3.15;0.90;;;;;;;3.22;53.97;98141.63;4990558;28;20477;-70
2021/12/07 08:09:31;;;;;;;5.75;1.30;;;;;;;3.02;53.24;98086.53;4954517;28;20046;-69
2021/12/07 08:11:57;;;;;;;3.55;1.08;;;;;;;3.25;53.72;98138.84;4979863;28;20073;-70
2021/12/07 08:14:23;;;;;;;5.07;1.08;;;;;;;2.87;54.34;98097.91;4998068;28;20125;-69
2021/12/07 08:16:49;;;;;;;2.75;1.08;;;;;;;3.19;53.75;98134.13;4963040;28;20145;-70
2021/12/07 08:19:15;;;;;;;5.68;1.38;;;;;;;3.07;54.46;98148.69;4967582;28;20041;-69
2021/12/07 08:21:40;;;;;;;4.50;1.20;;;;;;;3.17;54.05;98150.59;4978706;28;20673;-70
2021/12/07 08:24:05;;;;;;;4.35;0.90;;;;;;;2.78;53.45;98094.25;4980424;28;20029;-70
2021/12/07 08:26:33;;;;;;;3.72;1.30;;;;;;;3.15;53.62;98160.16;4968158;28;20738;-69
2021/12/07 08:29:00;;;;;;;3.92;1.10;;;;;;;3.13;54.65;98154.31;4997801;28;20069;-70
2021/12/07 08:31:27;;;;;;;4.50;1.40;;;;;;;3.18;54.02;98163.34;4996778;28;20090;-70
2021/12/07 08:33:52;;;;;;;4.38;1.85;;;;;;;3.25;53.31;98172.25;4973451;28;20134;-70
2021/12/07 08:36:18;;;;;;;3.47;1.05;;;;;;;3.47;48.56;98186.13;4984805;28;20073;-70
2021/12/07 08:38:44;;;;;;;3.15;1.00;;;;;;;3.43;49.12;98159.84;4980941;28;20033;-69
2021/12/07 08:41:11;;;;;;;3.90;1.20;;;;;;;3.53;50.31;98149.69;4966904;28;20356;-71
2021/12/07 08:43:38;;;;;;;4.30;1.20;;;;;;;3.64;48.39;98147.16;4981408;28;20112;-71
2021/12/07 08:46:05;;;;;;;3.78;1.05;;;;;;;3.71;52.32;98162.16;4981562;28;20038;-71
2021/12/07 08:48:31;;;;;;;3.17;1.00;;;;;;;3.44;51.07;98116.97;4997726;28;20046;-70
2021/12/07 08:50:57;;;;;;;3.70;1.10;;;;;;;3.47;48.19;98106.47;4978975;28;20096;-70
2021/12/07 08:53:23;;;;;;;3.65;1.20;;;;;;;3.91;47.43;98160.69;4984189;28;20741;-71
2021/12/07 09:01:21;;;;;;;5.25;1.50;;;;;;;3.74;51.91;98167.06;4994945;28;20069;-71
2021/12/07 09:03:47;;;;;;;4.45;1.30;;;;;;;3.70;52.43;98158.75;4995020;28;20033;-71
2021/12/07 09:06:13;;;;;;;5.25;1.77;;;;;;;3.74;52.98;98185.06;4998334;28;20034;-71
2021/12/07 09:08:42;;;;;;;10.48;2.03;;;;;;;3.50;53.14;98141.38;4976874;28;20108;-71
2021/12/07 09:11:10;;;;;;;5.57;2.22;;;;;;;3.80;53.13;98202.63;4997512;28;20034;-70
2021/12/07 09:13:36;;;;;;;7.30;2.72;;;;;;;3.42;53.80;98139.38;4991017;28;20027;-71
2021/12/07 09:16:02;;;;;;;7.65;2.33;;;;;;;3.49;53.06;98173.16;4974482;28;20050;-70
2021/12/07 09:18:28;;;;;;;4.93;1.73;;;;;;;3.62;52.38;98204.78;4979955;28;20080;-69
2021/12/07 09:20:54;;;;;;;5.47;1.63;;;;;;;3.56;53.36;98213.75;4997772;28;20029;-70
2021/12/07 09:23:19;;;;;;;5.25;1.77;;;;;;;3.61;54.01;98208.28;4981016;28;20657;-71
2021/12/07 09:25:45;;;;;;;3.97;1.30;;;;;;;3.45;53.78;98200.84;4978978;28;20038;-71
2021/12/07 09:28:11;;;;;;;6.00;1.70;;;;;;;3.54;54.83;98217.34;4966249;28;20084;-70
2021/12/07 09:30:38;;;;;;;6.88;1.85;;;;;;;3.25;54.67;98153.44;4994489;28;20105;-71
2021/12/07 09:33:04;;;;;;;6.20;2.35;;;;;;;3.27;52.93;98161.88;4996388;28;20058;-71
2021/12/07 09:35:29;;;;;;;5.60;2.10;;;;;;;3.49;53.48;98199.69;4964484;28;20397;-71
2021/12/07 09:37:55;;;;;;;4.65;1.70;;;;;;;3.50;54.35;98203.09;4979638;28;20034;-71
2021/12/07 09:40:23;;;;;;;4.20;1.30;;;;;;;3.74;52.74;98203.06;4979383;28;20136;-71
2021/12/07 09:42:50;;;;;;;3.97;1.40;;;;;;;3.73;52.48;98199.69;4981356;28;20030;-70
2021/12/07 09:45:18;;;;;;;4.47;1.25;;;;;;;3.75;52.88;98200.38;4980284;28;20117;-71
2021/12/07 09:47:44;;;;;;;4.22;1.63;;;;;;;3.78;52.69;98209.66;4975170;28;20069;-71
2021/12/07 09:50:12;;;;;;;5.38;1.70;;;;;;;3.58;50.48;98157.09;4980107;28;20041;-70
2021/12/07 09:52:38;;;;;;;4.82;1.80;;;;;;;3.94;49.88;98197.31;4982704;28;20049;-71
2021/12/07 09:55:04;;;;;;;5.65;2.00;;;;;;;4.03;49.83;98199.19;4980691;28;20034;-71
2021/12/07 09:57:29;;;;;;;4.30;1.50;;;;;;;4.23;49.27;98222.59;4998290;28;20031;-71
2021/12/07 09:59:55;;;;;;;6.63;1.50;;;;;;;4.13;49.62;98201.09;4995652;28;20054;-70
2021/12/07 10:02:20;;;;;;;4.07;1.30;;;;;;;4.15;49.53;98217.22;4979631;28;20030;-71
2021/12/07 10:04:46;;;;;;;4.00;1.50;;;;;;;4.22;49.26;98206.34;4979700;28;20093;-70
2021/12/07 10:07:11;;;;;;;4.75;1.40;;;;;;;4.10;48.88;98158.38;4968299;28;20489;-71
2021/12/07 10:09:38;;;;;;;3.63;1.20;;;;;;;4.42;49.28;98192.00;4993507;28;20133;-70
2021/12/07 10:12:06;;;;;;;3.88;1.20;;;;;;;4.48;50.69;98192.47;4977308;28;20500;-71
2021/12/07 10:14:39;;;;;;;7.00;3.45;;;;;;;4.50;49.73;98193.97;4979380;28;20034;-70
2021/12/07 10:17:05;;;;;;;5.50;2.03;;;;;;;4.46;48.48;98205.44;4975093;28;20026;-71
2021/12/07 10:19:35;;;;;;;4.82;2.35;;;;;;;4.31;49.15;98176.53;4975330;28;20026;-71
2021/12/07 10:22:05;;;;;;;8.02;4.30;;;;;;;4.52;49.01;98186.13;4967619;28;20030;-71
2021/12/07 10:24:45;;;;;;;4.43;1.70;;;;;;;4.62;48.01;98187.09;4979833;28;20693;-70
2021/12/07 10:27:11;;;;;;;4.47;1.40;;;;;;;4.43;48.87;98121.56;4997414;28;20079;-70
2021/12/07 10:29:39;;;;;;;4.90;1.65;;;;;;;4.84;48.54;98183.69;4980748;28;20033;-70
2021/12/07 10:32:07;;;;;;;4.95;1.30;;;;;;;4.89;48.46;98175.56;4957565;28;20173;-70
2021/12/07 10:34:36;;;;;;;2.85;1.00;;;;;;;4.90;50.92;98174.66;4978470;28;20030;-70
2021/12/07 10:37:16;;;;;;;3.72;1.20;;;;;;;4.99;52.37;98176.50;4943104;28;20133;-70
2021/12/07 10:39:44;;;;;;;4.70;1.40;;;;;;;5.04;53.25;98168.41;4982395;28;20041;-69
2021/12/07 10:42:17;;;;;;;3.55;1.10;;;;;;;5.17;51.68;98179.41;4995196;28;20026;-70
2021/12/07 10:44:43;;;;;;;2.78;0.90;;;;;;;5.16;51.41;98160.50;4979323;28;20038;-70
2021/12/07 10:47:27;;;;;;;4.55;1.17;;;;;;;5.22;51.77;98166.13;4959343;28;20046;-70
2021/12/07 10:49:58;;;;;;;3.55;1.23;;;;;;;5.33;52.93;98159.19;4976679;28;20034;-70
2021/12/07 10:52:29;;;;;;;3.75;1.15;;;;;;;5.49;51.79;98163.13;4973251;28;20034;-70
2021/12/07 10:55:18;;;;;;;4.47;1.23;;;;;;;5.62;51.96;98152.63;4971892;28;20034;-71
2021/12/07 10:57:46;;;;;;;2.58;0.82;;;;;;;5.64;51.56;98145.56;4997259;28;20038;-70
2021/12/07 11:00:17;;;;;;;4.82;0.90;;;;;;;5.69;51.90;98140.88;4971577;28;20049;-70
2021/12/07 11:02:53;;;;;;;4.13;1.00;;;;;;;5.73;52.82;98125.03;4979586;28;20037;-70
2021/12/07 11:05:29;;;;;;;4.15;1.00;;;;;;;5.75;53.54;98141.19;4983961;28;20347;-70
2021/12/07 11:07:56;;;;;;;3.67;1.20;;;;;;;5.88;51.21;98130.69;4995410;28;20037;-70
2021/12/07 11:10:31;;;;;;;3.40;1.00;;;;;;;5.67;49.97;98076.50;5000371;28;20057;-70
2021/12/07 11:13:07;;;;;;;4.95;0.80;;;;;;;5.99;49.10;98132.41;4962083;28;20125;-70
2021/12/07 11:15:35;;;;;;;3.33;0.80;;;;;;;6.07;50.60;98116.28;4980918;28;20500;-70
2021/12/07 11:18:02;;;;;;;3.08;0.90;;;;;;;5.89;50.96;98072.94;4993132;28;20407;-70
2021/12/07 11:20:29;;;;;;;4.53;0.73;;;;;;;6.20;51.52;98105.75;4998129;28;20361;-69
2021/12/07 11:23:00;;;;;;;2.90;0.90;;;;;;;6.01;50.64;98055.66;4999106;28;20109;-70
2021/12/07 11:25:53;;;;;;;3.53;0.93;;;;;;;6.33;50.47;98106.31;5005243;28;20042;-70
2021/12/07 11:31:33;;;;;;;3.05;1.02;;;;;;;6.53;49.67;98102.03;4979216;28;20046;-71
2021/12/07 11:34:07;;;;;;;3.35;1.00;;;;;;;6.58;51.05;98083.59;4976338;28;20066;-72
2021/12/07 11:36:44;;;;;;;3.05;0.90;;;;;;;6.80;49.43;98079.97;4984529;28;20042;-72
2021/12/07 11:39:21;;;;;;;6.63;1.35;;;;;;;6.95;45.05;98068.25;4973315;28;20060;-71
2021/12/07 11:41:50;;;;;;;4.80;1.50;;;;;;;7.10;43.85;98066.94;4982215;28;20034;-72
2021/12/07 11:44:16;;;;;;;2.35;0.70;;;;;;;7.25;41.55;98058.75;4955606;28;21246;-72
2021/12/07 11:46:47;;;;;;;3.20;1.10;;;;;;;6.94;42.54;98014.97;4978473;28;20080;-73
2021/12/07 11:49:15;;;;;;;4.47;1.10;;;;;;;7.21;42.58;98055.63;4978724;28;20106;-71
2021/12/07 11:51:43;;;;;;;5.38;1.10;;;;;;;7.20;42.77;98048.00;5009607;28;20469;-70
2021/12/07 11:54:08;;;;;;;3.58;1.20;;;;;;;7.18;43.43;98037.00;4980560;28;20464;-70
2021/12/07 11:56:34;;;;;;;4.75;1.45;;;;;;;7.25;43.11;98046.66;4992322;28;20038;-71
2021/12/07 11:59:00;;;;;;;5.05;2.40;;;;;;;7.32;41.82;98047.72;4977100;28;20415;-70
2021/12/07 12:01:26;;;;;;;4.72;1.52;;;;;;;7.39;40.34;98034.22;4975487;28;20137;-71
2021/12/07 12:03:51;;;;;;;4.07;1.40;;;;;;;7.20;39.66;97988.53;4976547;28;20206;-71
2021/12/07 12:06:17;;;;;;;4.30;1.77;;;;;;;7.64;40.16;98053.53;4973281;28;20337;-71
2021/12/07 12:08:42;;;;;;;2.45;0.82;;;;;;;7.77;40.22;98041.09;4962950;28;20506;-71
2021/12/07 12:11:16;;;;;;;3.47;1.10;;;;;;;7.86;40.06;98027.31;4974137;28;20065;-71
2021/12/07 12:13:59;;;;;;;3.88;0.90;;;;;;;8.03;39.85;98043.88;4976959;28;20323;-71
2021/12/07 12:16:46;;;;;;;2.67;0.80;;;;;;;7.96;40.62;98035.06;5010257;28;20181;-70
2021/12/07 12:19:32;;;;;;;2.08;0.70;;;;;;;7.96;39.37;98029.03;4981373;28;20034;-72
2021/12/07 12:21:58;;;;;;;2.75;0.88;;;;;;;8.14;38.93;98027.34;4961393;28;20030;-71
2021/12/07 12:24:32;;;;;;;6.43;1.40;;;;;;;7.97;39.75;98028.91;4982234;28;20018;-70
2021/12/07 12:27:13;;;;;;;3.10;1.00;;;;;;;8.02;39.06;98011.16;4996953;28;20563;-70
2021/12/07 12:29:41;;;;;;;3.30;1.10;;;;;;;8.14;38.16;98005.78;4965418;28;20073;-71
2021/12/07 12:32:08;;;;;;;3.55;1.17;;;;;;;7.94;38.67;97961.91;4996911;28;20039;-71
2021/12/07 12:34:37;;;;;;;5.93;1.45;;;;;;;8.21;37.77;97992.16;4965766;28;20461;-71
2021/12/07 12:37:08;;;;;;;3.38;1.20;;;;;;;7.78;37.68;97920.28;4980898;28;20717;-70
2021/12/07 12:39:49;;;;;;;3.90;1.50;;;;;;;8.29;36.51;97955.16;4983477;28;20496;-70
2021/12/07 12:42:36;;;;;;;4.32;1.27;;;;;;;8.56;34.29;97948.31;4979504;28;20022;-70
2021/12/07 12:45:08;;;;;;;2.45;0.85;;;;;;;8.56;32.92;97937.94;4982233;28;20997;-65
2021/12/07 12:47:34;;;;;;;3.33;0.90;;;;;;;8.73;33.98;97949.28;4976971;28;20034;-66
2021/12/07 12:50:15;;;;;;;7.97;1.40;;;;;;;8.81;34.89;97951.94;4994702;28;20031;-65
2021/12/07 12:52:47;;;;;;;4.20;1.10;;;;;;;8.55;34.58;97897.47;4979380;28;20113;-65
2021/12/07 12:55:46;;;;;;;5.65;1.45;;;;;;;8.87;33.64;97945.31;4963402;28;20038;-65
2021/12/07 12:58:36;;;;;;;1.90;0.60;;;;;;;8.95;33.48;97954.00;4980668;28;20264;-65
2021/12/07 13:01:08;;;;;;;;;;;;;;;8.94;33.04;97947.16;4973438;28;20050;-65
2021/12/07 13:04:15;;;;;;;1.50;0.60;;;;;;;9.00;33.57;97950.97;4986004;28;19918;-65
2021/12/07 13:06:52;;;;;;;13.38;5.20;;;;;;;8.94;34.61;97952.34;4981578;28;20645;-65
2021/12/07 13:09:17;;;;;;;6.47;2.67;;;;;;;9.01;34.19;97950.78;4988053;28;20038;-66
2021/12/07 13:11:42;;;;;;;7.75;2.45;;;;;;;9.10;32.49;97956.84;4982296;28;20026;-66
2021/12/07 13:14:14;;;;;;;3.15;0.80;;;;;;;9.02;32.63;97949.84;4980486;28;20116;-66
2021/12/07 13:17:07;;;;;;;3.35;1.00;;;;;;;9.08;33.48;97958.78;4998722;28;20030;-66
2021/12/07 13:20:11;;;;;;;3.50;1.02;;;;;;;9.01;35.02;97962.94;4996884;28;20798;-65
2021/12/07 13:23:07;;;;;;;3.95;1.40;;;;;;;8.92;36.20;97966.44;4980007;28;20022;-65
2021/12/07 13:25:37;;;;;;;2.65;0.73;;;;;;;8.89;33.88;97964.97;4983379;28;20115;-65
2021/12/07 13:28:04;;;;;;;;;;;;;;;8.85;34.90;97969.66;4992952;28;20029;-66
2021/12/07 13:31:01;;;;;;;2.80;0.93;;;;;;;8.72;37.20;97958.00;4980884;28;20127;-66
2021/12/07 13:33:34;;;;;;;3.50;0.80;;;;;;;8.64;35.03;97951.78;4987150;28;20125;-65
2021/12/07 13:36:00;;;;;;;2.97;0.80;;;;;;;8.66;34.50;97936.09;4981805;28;20109;-65